createdAt,value
2022-08-18T00:00:14.370Z,11.25
2022-08-18T00:03:01.026Z,14.18
2022-08-18T00:05:36.298Z,10.82
2022-08-18T00:08:10.705Z,10.23
2022-08-18T00:10:43.427Z,9.02
2022-08-18T00:15:49.196Z,9.57
2022-08-18T00:18:19.358Z,9.80
2022-08-18T00:20:50.301Z,9.77
2022-08-18T00:23:19.950Z,9.88
2022-08-18T00:25:50.263Z,9.55
2022-08-18T00:28:19.749Z,9.30
2022-08-18T00:30:53.898Z,8.30
2022-08-18T00:33:24.096Z,10.98
2022-08-18T00:35:55.408Z,11.02
2022-08-18T00:38:25.643Z,10.10
2022-08-18T00:40:57.594Z,8.35
2022-08-18T00:43:37.216Z,10.00
2022-08-18T00:46:09.923Z,10.07
2022-08-18T00:48:39.377Z,9.25
2022-08-18T00:51:16.917Z,9.77
2022-08-18T00:53:52.171Z,10.35
2022-08-18T00:56:27.774Z,10.10
2022-08-18T00:59:04.231Z,11.35
2022-08-18T01:01:35.772Z,10.48
2022-08-18T01:04:15.412Z,14.02
2022-08-18T01:06:53.589Z,9.43
2022-08-18T01:09:23.582Z,9.55
2022-08-18T01:11:53.280Z,9.80
2022-08-18T01:14:23.142Z,9.85
2022-08-18T01:17:10.740Z,10.90
2022-08-18T01:19:58.315Z,9.95
2022-08-18T01:22:37.381Z,12.43
2022-08-18T01:25:28.393Z,11.20
2022-08-18T01:28:00.734Z,10.15
2022-08-18T01:30:33.031Z,10.20
2022-08-18T01:33:02.493Z,9.40
2022-08-18T01:35:41.513Z,9.73
2022-08-18T01:38:11.534Z,10.10
2022-08-18T01:41:22.377Z,10.05
2022-08-18T01:43:34.455Z,11.15
2022-08-18T01:46:05.446Z,12.10
2022-08-18T01:48:38.025Z,11.48
2022-08-18T01:51:13.166Z,10.45
2022-08-18T01:53:42.889Z,10.55
2022-08-18T01:56:17.740Z,12.18
2022-08-18T01:58:48.657Z,10.52
2022-08-18T02:01:18.480Z,11.85
2022-08-18T02:04:06.095Z,10.73
2022-08-18T02:06:47.785Z,10.60
2022-08-18T02:09:23.808Z,10.48
2022-08-18T02:11:56.206Z,10.02
2022-08-18T02:14:27.397Z,10.07
2022-08-18T02:17:01.808Z,10.55
2022-08-18T02:19:36.690Z,11.50
2022-08-18T02:22:09.393Z,10.75
2022-08-18T02:24:39.581Z,12.48
2022-08-18T02:27:12.881Z,10.52
2022-08-18T02:29:43.368Z,10.38
2022-08-18T02:32:13.001Z,11.65
2022-08-18T02:34:42.829Z,9.73
2022-08-18T02:37:15.324Z,9.77
2022-08-18T02:39:45.715Z,10.55
2022-08-18T02:42:19.416Z,10.25
2022-08-18T02:44:48.934Z,10.95
2022-08-18T02:47:21.320Z,10.45
2022-08-18T02:49:51.105Z,10.05
2022-08-18T02:52:20.590Z,9.77
2022-08-18T02:54:50.362Z,10.05
2022-08-18T02:57:23.681Z,10.93
2022-08-18T02:59:53.394Z,10.75
2022-08-18T03:02:23.366Z,10.38
2022-08-18T03:04:52.843Z,11.32
2022-08-18T03:07:22.356Z,9.57
2022-08-18T03:09:52.109Z,9.75
2022-08-18T03:12:22.972Z,9.82
2022-08-18T03:14:52.493Z,9.68
2022-08-18T03:17:22.077Z,12.25
2022-08-18T03:19:51.563Z,10.70
2022-08-18T03:22:28.411Z,9.48
2022-08-18T03:24:59.712Z,9.15
2022-08-18T03:27:30.796Z,9.57
2022-08-18T03:30:00.661Z,10.77
2022-08-18T03:32:30.518Z,9.32
2022-08-18T03:34:59.973Z,9.00
2022-08-18T03:37:29.457Z,10.15
2022-08-18T03:39:58.961Z,9.95
2022-08-18T03:42:29.827Z,9.15
2022-08-18T03:44:59.509Z,10.20
2022-08-18T03:47:28.969Z,9.93
2022-08-18T03:49:59.444Z,10.40
2022-08-18T03:52:28.988Z,10.55
2022-08-18T03:54:59.049Z,8.95
2022-08-18T03:57:33.178Z,8.48
2022-08-18T04:00:12.043Z,9.57
2022-08-18T04:02:41.762Z,10.07
2022-08-18T04:05:12.863Z,10.57
2022-08-18T04:07:44.480Z,9.57
2022-08-18T04:10:19.467Z,10.38
2022-08-18T04:12:51.296Z,9.77
2022-08-18T04:15:21.053Z,10.32
2022-08-18T04:18:03.080Z,9.88
2022-08-18T04:20:33.902Z,9.82
2022-08-18T04:23:04.134Z,10.50
2022-08-18T04:25:33.721Z,10.35
2022-08-18T04:28:04.880Z,10.65
2022-08-18T04:30:34.475Z,10.40
2022-08-18T04:33:06.294Z,10.15
2022-08-18T04:35:35.857Z,10.18
2022-08-18T04:38:05.389Z,9.32
2022-08-18T04:40:34.906Z,11.43
2022-08-18T04:43:05.834Z,17.08
2022-08-18T04:45:36.333Z,11.00
2022-08-18T04:48:06.821Z,9.30
2022-08-18T04:50:38.111Z,10.35
2022-08-18T04:53:25.533Z,11.25
2022-08-18T04:55:57.610Z,11.00
2022-08-18T04:58:28.471Z,8.93
2022-08-18T05:01:01.841Z,9.70
2022-08-18T05:03:31.386Z,10.20
2022-08-18T05:06:05.316Z,10.48
2022-08-18T05:08:37.270Z,11.48
2022-08-18T05:11:07.269Z,11.90
2022-08-18T05:13:38.988Z,11.10
2022-08-18T05:16:11.884Z,11.88
2022-08-18T05:18:46.821Z,10.52
2022-08-18T05:21:16.628Z,12.32
2022-08-18T05:23:49.453Z,11.65
2022-08-18T05:28:55.683Z,13.27
2022-08-18T05:31:41.112Z,12.45
2022-08-18T05:34:10.921Z,13.55
2022-08-18T05:37:23.573Z,13.02
2022-08-18T05:40:00.177Z,11.88
2022-08-18T05:42:36.699Z,10.77
2022-08-18T05:45:14.306Z,11.88
2022-08-18T05:47:44.665Z,11.85
2022-08-18T05:50:18.532Z,12.98
2022-08-18T05:52:56.723Z,10.60
2022-08-18T05:55:52.462Z,12.60
2022-08-18T05:58:33.100Z,14.93
2022-08-18T06:01:10.069Z,12.57
2022-08-18T06:03:50.473Z,14.15
2022-08-18T06:06:24.836Z,16.60
2022-08-18T06:09:05.676Z,10.77
2022-08-18T06:11:35.298Z,11.27
2022-08-18T06:14:05.073Z,10.85
2022-08-18T06:16:56.006Z,12.13
2022-08-18T06:19:47.234Z,13.95
2022-08-18T06:22:31.941Z,11.90
2022-08-18T06:25:13.518Z,11.05
2022-08-18T06:27:58.574Z,10.07
2022-08-18T06:30:47.156Z,11.07
2022-08-18T06:33:46.402Z,12.93
2022-08-18T06:36:29.331Z,11.82
2022-08-18T06:41:43.484Z,10.73
2022-08-18T06:44:24.155Z,11.65
2022-08-18T06:47:04.144Z,13.88
2022-08-18T06:49:48.732Z,11.07
2022-08-18T06:52:30.457Z,10.77
2022-08-18T06:55:03.356Z,11.45
2022-08-18T06:57:38.110Z,12.50
2022-08-18T07:00:26.875Z,10.27
2022-08-18T07:03:10.499Z,11.88
2022-08-18T07:06:05.434Z,10.90
2022-08-18T07:08:40.141Z,13.00
2022-08-18T07:11:20.669Z,11.07
2022-08-18T07:14:09.418Z,11.18
2022-08-18T07:16:58.287Z,12.15
2022-08-18T07:19:32.959Z,12.00
2022-08-18T07:22:11.081Z,10.15
2022-08-18T07:24:44.262Z,10.38
2022-08-18T07:27:19.513Z,8.93
2022-08-18T07:30:07.609Z,10.45
2022-08-18T07:32:45.904Z,8.75
2022-08-18T07:35:23.868Z,10.82
2022-08-18T07:38:18.620Z,9.43
2022-08-18T07:40:57.665Z,9.32
2022-08-18T07:43:42.334Z,10.07
2022-08-18T07:46:19.045Z,9.10
2022-08-18T07:48:48.602Z,9.63
2022-08-18T07:51:33.854Z,10.27
2022-08-18T07:54:47.163Z,10.30
2022-08-18T07:57:20.830Z,9.60
2022-08-18T08:00:05.612Z,9.73
2022-08-18T08:03:01.035Z,9.00
2022-08-18T08:05:48.448Z,9.88
2022-08-18T08:08:31.455Z,10.13
2022-08-18T08:11:22.243Z,9.65
2022-08-18T08:14:24.267Z,9.25
2022-08-18T08:17:11.794Z,10.15
2022-08-18T08:20:08.407Z,10.23
2022-08-18T08:22:51.023Z,9.50
2022-08-18T08:25:45.629Z,9.27
2022-08-18T08:28:35.089Z,9.18
2022-08-18T08:31:35.555Z,9.13
2022-08-18T08:34:15.578Z,8.82
2022-08-18T08:36:49.161Z,9.85
2022-08-18T08:39:26.449Z,8.88
2022-08-18T08:42:31.904Z,8.88
2022-08-18T08:45:00.716Z,9.25
2022-08-18T08:47:38.256Z,10.57
2022-08-18T08:50:14.457Z,10.35
2022-08-18T08:52:49.013Z,9.38
2022-08-18T08:55:26.385Z,8.40
2022-08-18T08:58:18.360Z,9.38
2022-08-18T09:00:51.708Z,9.00
2022-08-18T09:03:41.436Z,8.63
2022-08-18T09:06:30.170Z,9.77
2022-08-18T09:09:25.182Z,8.10
2022-08-18T09:12:45.807Z,8.63
2022-08-18T09:15:56.449Z,9.00
2022-08-18T09:18:52.542Z,10.15
2022-08-18T09:21:38.626Z,8.02
2022-08-18T09:24:26.063Z,8.20
2022-08-18T09:27:26.525Z,8.45
2022-08-18T09:29:59.356Z,8.07
2022-08-18T09:32:58.113Z,9.27
2022-08-18T09:35:51.990Z,9.80
2022-08-18T09:38:48.670Z,11.77
2022-08-18T09:41:35.150Z,8.00
2022-08-18T09:47:02.645Z,11.43
2022-08-18T09:49:51.085Z,8.70
2022-08-18T09:50:37.282Z,8.43
2022-08-18T09:52:59.157Z,10.57
2022-08-18T09:56:05.113Z,11.07
2022-08-18T10:01:42.532Z,11.20
2022-08-18T10:04:33.733Z,10.80
2022-08-18T10:07:38.848Z,11.70
2022-08-18T10:10:58.791Z,9.07
2022-08-18T10:13:25.125Z,11.05
2022-08-18T10:16:14.213Z,11.10
2022-08-18T10:19:05.932Z,9.98
2022-08-18T10:22:08.047Z,11.52
2022-08-18T10:24:47.994Z,9.65
2022-08-18T10:27:50.247Z,10.10
2022-08-18T10:31:10.192Z,9.87
2022-08-18T10:34:23.353Z,10.80
2022-08-18T10:36:58.987Z,9.77
2022-08-18T10:39:50.080Z,8.60
2022-08-18T10:42:31.297Z,11.35
2022-08-18T10:45:22.134Z,10.23
2022-08-18T10:48:17.335Z,10.18
2022-08-18T10:50:59.260Z,10.73
2022-08-18T10:53:39.787Z,13.32
2022-08-18T10:56:34.240Z,12.45
2022-08-18T10:59:28.642Z,10.18
2022-08-18T11:02:37.038Z,11.25
2022-08-18T11:05:11.330Z,9.93
2022-08-18T11:07:44.875Z,9.57
2022-08-18T11:10:31.895Z,10.15
2022-08-18T11:13:16.230Z,8.60
2022-08-18T11:16:02.960Z,7.43
2022-08-18T11:18:43.489Z,9.48
2022-08-18T11:21:41.761Z,8.70
2022-08-18T11:24:28.928Z,7.63
2022-08-18T11:27:02.894Z,8.73
2022-08-18T11:29:38.275Z,8.70
2022-08-18T11:32:18.019Z,9.65
2022-08-18T11:34:53.838Z,8.48
2022-08-18T11:37:49.260Z,10.15
2022-08-18T11:46:33.390Z,8.75
2022-08-18T11:49:24.032Z,10.35
2022-08-18T11:52:05.629Z,9.00
2022-08-18T11:54:50.972Z,7.50
2022-08-18T11:57:46.619Z,7.80
2022-08-18T12:03:49.546Z,7.85
2022-08-18T12:06:27.915Z,7.85
2022-08-18T12:09:04.990Z,12.93
2022-08-18T12:17:21.586Z,6.90
2022-08-18T12:19:52.923Z,9.30
2022-08-18T12:22:27.370Z,7.37
2022-08-18T12:24:57.039Z,8.38
2022-08-18T12:27:32.156Z,9.15
2022-08-18T12:30:03.298Z,9.32
2022-08-18T12:32:46.787Z,7.97
2022-08-18T12:35:22.590Z,8.57
2022-08-18T12:38:11.244Z,9.10
2022-08-18T12:40:43.916Z,7.72
2022-08-18T12:43:13.686Z,8.05
2022-08-18T12:45:43.766Z,9.40
2022-08-18T12:48:13.438Z,7.20
2022-08-18T12:50:54.711Z,8.82
2022-08-18T12:56:25.909Z,7.68
2022-08-18T12:58:55.835Z,7.20
2022-08-18T13:01:26.701Z,6.68
2022-08-18T13:04:12.576Z,7.00
2022-08-18T13:07:00.646Z,7.13
2022-08-18T13:09:52.752Z,7.60
2022-08-18T13:12:25.474Z,6.77
2022-08-18T13:14:55.831Z,7.80
2022-08-18T13:17:33.841Z,7.57
2022-08-18T13:20:09.975Z,8.20
2022-08-18T13:22:41.631Z,7.50
2022-08-18T13:25:33.237Z,8.65
2022-08-18T13:28:06.821Z,7.57
2022-08-18T13:30:36.557Z,8.02
2022-08-18T13:33:35.263Z,8.20
2022-08-18T13:35:57.722Z,8.32
2022-08-18T13:38:29.439Z,7.53
2022-08-18T13:41:03.523Z,7.30
2022-08-18T13:43:42.026Z,7.53
2022-08-18T13:46:15.889Z,8.80
2022-08-18T13:48:46.983Z,7.70
2022-08-18T13:51:24.980Z,11.93
2022-08-18T13:54:17.724Z,8.27
2022-08-18T13:56:51.329Z,9.38
2022-08-18T13:59:23.037Z,7.95
2022-08-18T14:01:53.949Z,8.25
2022-08-18T14:04:27.805Z,8.52
2022-08-18T14:06:59.042Z,9.77
2022-08-18T14:09:36.091Z,7.82
2022-08-18T14:12:22.972Z,7.65
2022-08-18T14:14:56.911Z,9.55
2022-08-18T14:17:28.116Z,8.73
2022-08-18T14:20:21.565Z,8.40
2022-08-18T14:23:11.772Z,7.70
2022-08-18T14:26:00.439Z,8.07
2022-08-18T14:28:31.734Z,9.18
2022-08-18T14:31:04.798Z,8.32
2022-08-18T14:33:50.295Z,8.60
2022-08-18T14:36:30.008Z,9.30
2022-08-18T14:39:00.448Z,8.38
2022-08-18T14:41:32.680Z,8.57
2022-08-18T14:46:51.865Z,7.80
2022-08-18T14:49:29.113Z,8.23
2022-08-18T14:52:00.818Z,8.32
2022-08-18T14:54:31.404Z,9.48
2022-08-18T14:57:05.381Z,8.80
2022-08-18T14:59:37.681Z,8.57
2022-08-18T15:02:13.429Z,8.15
2022-08-18T15:04:53.129Z,8.05
2022-08-18T15:07:26.627Z,9.95
2022-08-18T15:10:15.226Z,8.60
2022-08-18T15:12:47.857Z,9.70
2022-08-18T15:15:19.395Z,13.13
2022-08-18T15:17:53.138Z,9.52
2022-08-18T15:20:29.620Z,9.25
2022-08-18T15:23:22.773Z,9.32
2022-08-18T15:25:58.873Z,8.90
2022-08-18T15:28:30.337Z,8.38
2022-08-18T15:33:51.075Z,8.77
2022-08-18T15:36:29.041Z,8.88
2022-08-18T15:38:59.940Z,8.40
2022-08-18T15:41:44.280Z,10.02
2022-08-18T15:44:19.261Z,9.55
2022-08-18T15:46:51.300Z,9.07
2022-08-18T15:49:23.900Z,8.50
2022-08-18T15:51:53.396Z,9.77
2022-08-18T15:54:23.039Z,11.57
2022-08-18T15:56:58.469Z,9.15
2022-08-18T15:59:40.018Z,8.82
2022-08-18T16:02:11.782Z,8.55
2022-08-18T16:04:48.579Z,9.48
2022-08-18T16:07:39.909Z,8.85
2022-08-18T16:10:10.388Z,9.43
2022-08-18T16:12:45.800Z,8.77
2022-08-18T16:15:21.454Z,9.63
2022-08-18T16:17:54.506Z,9.27
2022-08-18T16:20:24.988Z,10.25
2022-08-18T16:22:58.665Z,9.90
2022-08-18T16:25:29.149Z,9.25
2022-08-18T16:28:01.383Z,10.15
2022-08-18T16:30:33.584Z,10.55
2022-08-18T16:33:05.565Z,10.15
2022-08-18T16:35:37.288Z,11.52
2022-08-18T16:38:09.434Z,11.13
2022-08-18T16:40:40.303Z,11.13
2022-08-18T16:43:10.400Z,11.27
2022-08-18T16:45:42.868Z,10.95
2022-08-18T16:48:16.646Z,12.00
2022-08-18T16:50:47.138Z,12.13
2022-08-18T16:53:17.061Z,11.98
2022-08-18T16:55:46.912Z,12.52
2022-08-18T16:58:34.701Z,13.02
2022-08-18T17:01:23.525Z,12.32
2022-08-18T17:04:20.408Z,12.75
2022-08-18T17:06:51.451Z,13.63
2022-08-18T17:09:22.841Z,13.50
2022-08-18T17:11:52.985Z,13.07
2022-08-18T17:14:27.681Z,14.25
2022-08-18T17:17:00.516Z,13.80
2022-08-18T17:19:35.092Z,14.40
2022-08-18T17:22:08.100Z,11.07
2022-08-18T17:24:38.245Z,7.30
2022-08-18T17:27:26.246Z,3.88
2022-08-18T17:30:06.844Z,3.88
2022-08-18T17:32:48.416Z,3.05
2022-08-18T17:35:28.867Z,3.30
2022-08-18T17:38:08.435Z,2.25
2022-08-18T17:40:46.432Z,3.10
2022-08-18T17:43:21.880Z,3.78
2022-08-18T17:45:58.877Z,4.40
2022-08-18T17:48:37.237Z,2.85
2022-08-18T17:51:32.729Z,2.58
2022-08-18T17:54:19.011Z,4.05
2022-08-18T17:56:54.708Z,3.25
2022-08-18T17:59:46.144Z,4.35
2022-08-18T18:02:29.570Z,5.63
2022-08-18T18:05:05.356Z,5.15
2022-08-18T18:07:40.805Z,4.45
2022-08-18T18:10:16.974Z,2.97
2022-08-18T18:12:46.504Z,5.78
2022-08-18T18:15:32.121Z,3.83
2022-08-18T18:18:24.812Z,5.05
2022-08-18T18:21:08.686Z,4.47
2022-08-18T18:23:43.420Z,4.13
2022-08-18T18:26:29.417Z,2.33
2022-08-18T18:29:29.090Z,6.85
2022-08-18T18:32:04.104Z,3.65
2022-08-18T18:34:39.725Z,3.00
2022-08-18T18:37:29.499Z,3.45
2022-08-18T18:40:03.094Z,4.82
2022-08-18T18:42:36.973Z,4.30
2022-08-18T18:45:21.765Z,5.20
2022-08-18T18:48:05.455Z,5.18
2022-08-18T18:50:55.624Z,7.00
2022-08-18T18:53:45.456Z,6.15
2022-08-18T18:56:23.922Z,6.50
2022-08-18T18:59:14.077Z,6.05
2022-08-18T19:02:00.173Z,4.97
2022-08-18T19:04:38.550Z,6.30
2022-08-18T19:07:21.513Z,5.90
2022-08-18T19:12:35.403Z,7.47
2022-08-18T19:15:14.601Z,5.80
2022-08-18T19:17:50.990Z,5.78
2022-08-18T19:20:28.165Z,4.47
2022-08-18T19:23:05.808Z,5.32
2022-08-18T19:25:46.808Z,5.43
2022-08-18T19:29:12.112Z,6.70
2022-08-18T19:31:32.753Z,6.50
2022-08-18T19:34:13.551Z,6.53
2022-08-18T19:36:56.129Z,7.20
2022-08-18T19:39:36.712Z,5.32
2022-08-18T19:42:18.622Z,6.80
2022-08-18T19:45:15.471Z,8.05
2022-08-18T19:47:55.576Z,7.47
2022-08-18T19:50:33.614Z,9.82
2022-08-18T19:53:31.160Z,7.85
2022-08-18T19:56:32.701Z,10.32
2022-08-18T20:00:14.514Z,8.80
2022-08-18T20:03:48.643Z,8.63
2022-08-18T20:09:47.517Z,11.48
2022-08-18T20:12:48.108Z,11.35
2022-08-18T20:15:24.620Z,11.23
2022-08-18T20:18:22.758Z,12.90
2022-08-18T20:21:46.343Z,16.38
2022-08-18T20:24:48.382Z,12.73
2022-08-18T20:27:35.858Z,11.75
2022-08-18T20:30:33.937Z,12.77
2022-08-18T20:33:34.217Z,12.18
2022-08-18T20:36:27.049Z,13.25
2022-08-18T20:38:59.487Z,17.67
2022-08-18T20:41:50.596Z,14.80
2022-08-18T20:44:58.736Z,15.83
2022-08-18T20:48:13.839Z,17.60
2022-08-18T20:51:11.268Z,16.60
2022-08-18T20:54:13.646Z,18.33
2022-08-18T20:56:50.695Z,16.57
2022-08-18T20:59:30.584Z,18.27
2022-08-18T21:02:07.274Z,17.90
2022-08-18T21:04:52.982Z,15.90
2022-08-18T21:07:36.979Z,15.57
2022-08-18T21:10:21.280Z,14.95
2022-08-18T21:12:54.100Z,13.00
2022-08-18T21:15:29.083Z,10.38
2022-08-18T21:18:02.070Z,9.60
2022-08-18T21:20:35.166Z,10.27
2022-08-18T21:23:10.530Z,9.55
2022-08-18T21:25:52.545Z,10.07
2022-08-18T21:28:24.232Z,11.13
2022-08-18T21:31:42.965Z,10.77
2022-08-18T21:33:52.737Z,9.48
2022-08-18T21:39:12.168Z,8.00
2022-08-18T21:41:48.173Z,7.93
2022-08-18T21:44:24.661Z,9.25
2022-08-18T21:47:07.061Z,9.93
2022-08-18T21:49:37.684Z,7.70
2022-08-18T21:52:08.551Z,7.97
2022-08-18T21:54:41.564Z,7.95
2022-08-18T21:57:26.285Z,6.30
2022-08-18T22:00:23.736Z,6.40
2022-08-18T22:03:20.422Z,6.65
2022-08-18T22:06:00.943Z,6.00
2022-08-18T22:08:49.771Z,6.85
2022-08-18T22:12:01.467Z,6.30
2022-08-18T22:14:55.215Z,5.43
2022-08-18T22:17:33.829Z,4.72
2022-08-18T22:20:46.390Z,5.85
2022-08-18T22:23:56.719Z,5.68
2022-08-18T22:26:30.657Z,5.50
2022-08-18T22:29:13.227Z,6.55
2022-08-18T22:31:47.047Z,5.93
2022-08-18T22:34:27.169Z,6.07
2022-08-18T22:37:02.646Z,6.45
2022-08-18T22:39:39.158Z,5.65
2022-08-18T22:42:10.617Z,6.85
2022-08-18T22:44:40.785Z,5.85
2022-08-18T22:47:11.092Z,6.18
2022-08-18T22:49:45.268Z,5.32
2022-08-18T22:52:29.889Z,6.75
2022-08-18T22:55:07.033Z,5.80
2022-08-18T22:57:37.417Z,6.50
2022-08-18T23:00:12.922Z,6.25
2022-08-18T23:02:43.385Z,8.00
2022-08-18T23:05:13.329Z,7.15
2022-08-18T23:07:43.277Z,8.07
2022-08-18T23:10:16.432Z,8.35
2022-08-18T23:12:48.725Z,9.75
2022-08-18T23:15:20.291Z,9.43
2022-08-18T23:17:49.783Z,8.43
2022-08-18T23:20:20.016Z,8.50
2022-08-18T23:22:49.644Z,9.60
2022-08-18T23:25:20.529Z,11.20
2022-08-18T23:27:52.623Z,9.07
2022-08-18T23:30:22.533Z,8.95
2022-08-18T23:32:52.175Z,9.88
2022-08-18T23:35:21.867Z,8.80
2022-08-18T23:37:51.321Z,9.20
2022-08-18T23:40:22.770Z,9.23
2022-08-18T23:42:52.400Z,10.70
2022-08-18T23:45:22.204Z,11.23
2022-08-18T23:47:52.793Z,10.00
2022-08-18T23:50:26.509Z,10.23
2022-08-18T23:52:58.221Z,10.25
2022-08-18T23:55:29.404Z,11.50
2022-08-18T23:57:58.881Z,12.13
